createdAt,value
2022-08-12T00:00:23.140Z,21.5
2022-08-12T00:02:02.047Z,21.5
2022-08-12T00:02:23.139Z,21.6
2022-08-12T00:03:23.237Z,21.4
2022-08-12T00:04:23.139Z,21.4
2022-08-12T00:05:23.147Z,21.1
2022-08-12T00:06:23.145Z,21.1
2022-08-12T00:07:23.138Z,21.2
2022-08-12T00:08:30.792Z,21.3
2022-08-12T00:09:25.840Z,21.4
2022-08-12T00:11:23.145Z,21.4
2022-08-12T00:12:23.148Z,21.2
2022-08-12T00:13:23.149Z,21.2
2022-08-12T00:14:23.145Z,21.2
2022-08-12T00:15:23.190Z,21.3
2022-08-12T00:17:23.397Z,21.3
2022-08-12T00:18:23.149Z,21.3
2022-08-12T00:19:23.152Z,21.2
2022-08-12T00:20:23.193Z,21.2
2022-08-12T00:22:23.148Z,21.2
2022-08-12T00:23:23.157Z,21.1
2022-08-12T00:24:23.156Z,21.1
2022-08-12T00:26:01.430Z,21.1
2022-08-12T00:26:24.622Z,21
2022-08-12T00:27:26.224Z,21.2
2022-08-12T00:28:23.157Z,21.1
2022-08-12T00:29:23.147Z,21.2
2022-08-12T00:30:23.227Z,21.1
2022-08-12T00:32:35.095Z,21.1
2022-08-12T00:33:23.151Z,21.1
2022-08-12T00:34:23.157Z,21
2022-08-12T00:35:23.585Z,21
2022-08-12T00:36:35.295Z,21
2022-08-12T00:37:23.158Z,20.8
2022-08-12T00:38:23.154Z,20.6
2022-08-12T00:39:23.206Z,20.6
2022-08-12T00:40:23.166Z,20.7
2022-08-12T00:41:23.162Z,20.8
2022-08-12T00:43:23.161Z,20.8
2022-08-12T00:44:23.153Z,20.7
2022-08-12T00:45:23.145Z,20.7
2022-08-12T00:46:23.155Z,20.5
2022-08-12T00:47:24.750Z,20.5
2022-08-12T00:48:23.165Z,20.4
2022-08-12T00:49:23.158Z,20.5
2022-08-12T00:50:23.158Z,20.6
2022-08-12T00:51:23.151Z,20.6
2022-08-12T00:52:23.161Z,20.6
2022-08-12T00:53:23.157Z,20.6
2022-08-12T00:54:23.165Z,20.7
2022-08-12T00:55:23.159Z,20.7
2022-08-12T00:56:23.164Z,20.6
2022-08-12T00:57:23.167Z,20.6
2022-08-12T00:58:23.153Z,20.5
2022-08-12T00:59:23.161Z,20.5
2022-08-12T01:00:23.159Z,20.2
2022-08-12T01:01:23.257Z,20.2
2022-08-12T01:02:23.200Z,20.1
2022-08-12T01:04:23.162Z,19.9
2022-08-12T01:05:23.172Z,20.1
2022-08-12T01:06:23.165Z,20
2022-08-12T01:07:23.163Z,19.9
2022-08-12T01:08:23.180Z,20
2022-08-12T01:09:23.161Z,19.8
2022-08-12T01:10:27.508Z,19.8
2022-08-12T01:11:23.163Z,19.8
2022-08-12T01:12:23.184Z,19.7
2022-08-12T01:13:23.167Z,19.8
2022-08-12T01:14:23.180Z,19.8
2022-08-12T01:15:23.173Z,19.8
2022-08-12T01:16:23.172Z,19.7
2022-08-12T01:17:23.182Z,19.7
2022-08-12T01:18:23.172Z,19.7
2022-08-12T01:19:23.163Z,19.6
2022-08-12T01:20:23.179Z,19.7
2022-08-12T01:21:23.167Z,19.7
2022-08-12T01:22:23.165Z,19.5
2022-08-12T01:23:23.170Z,19.5
2022-08-12T01:25:23.167Z,19.5
2022-08-12T01:26:23.163Z,19.5
2022-08-12T01:27:23.167Z,19.6
2022-08-12T01:28:23.169Z,19.6
2022-08-12T01:29:23.163Z,19.4
2022-08-12T01:30:23.168Z,19.5
2022-08-12T01:31:23.203Z,19.6
2022-08-12T01:32:23.165Z,19.6
2022-08-12T01:33:23.176Z,19.6
2022-08-12T01:34:35.714Z,19.6
2022-08-12T01:36:23.171Z,19.5
2022-08-12T01:37:23.168Z,19.5
2022-08-12T01:38:29.997Z,19.3
2022-08-12T01:39:23.207Z,19.2
2022-08-12T01:40:34.041Z,19.2
2022-08-12T01:41:23.179Z,19.3
2022-08-12T01:42:23.176Z,19.3
2022-08-12T01:43:23.167Z,19.1
2022-08-12T01:44:23.177Z,19.2
2022-08-12T01:45:23.180Z,19.1
2022-08-12T01:46:23.171Z,19.2
2022-08-12T01:47:23.171Z,19.2
2022-08-12T01:48:23.175Z,19.2
2022-08-12T01:49:23.176Z,19.3
2022-08-12T01:50:23.195Z,19.3
2022-08-12T01:52:14.740Z,19.3
2022-08-12T01:52:23.187Z,19.3
2022-08-12T01:53:23.182Z,19.2
2022-08-12T01:54:23.169Z,19.3
2022-08-12T01:55:23.182Z,19.3
2022-08-12T01:57:59.656Z,19.2
2022-08-12T01:58:23.171Z,19.3
2022-08-12T01:59:23.181Z,19.4
2022-08-12T02:00:35.727Z,19.3
2022-08-12T02:01:23.240Z,19.3
2022-08-12T02:02:23.180Z,19.3
2022-08-12T02:03:23.176Z,19.4
2022-08-12T02:04:23.187Z,19.2
2022-08-12T02:06:23.177Z,19.3
2022-08-12T02:07:23.175Z,19.3
2022-08-12T02:08:23.180Z,19.3
2022-08-12T02:09:23.179Z,19.3
2022-08-12T02:10:50.719Z,19.2
2022-08-12T02:11:23.185Z,19.3
2022-08-12T02:12:28.526Z,19.2
2022-08-12T02:13:49.171Z,19.3
2022-08-12T02:14:23.178Z,19.1
2022-08-12T02:15:23.184Z,19.2
2022-08-12T02:16:23.184Z,19.1
2022-08-12T02:18:23.183Z,19.1
2022-08-12T02:19:23.452Z,19.1
2022-08-12T02:20:23.187Z,19
2022-08-12T02:21:23.189Z,19
2022-08-12T02:22:23.180Z,19.1
2022-08-12T02:23:23.185Z,19
2022-08-12T02:24:23.180Z,19
2022-08-12T02:25:23.198Z,19
2022-08-12T02:26:23.189Z,19
2022-08-12T02:27:23.187Z,19
2022-08-12T02:28:23.182Z,18.9
2022-08-12T02:29:23.187Z,18.9
2022-08-12T02:30:23.189Z,18.9
2022-08-12T02:31:23.185Z,18.9
2022-08-12T02:32:23.182Z,18.9
2022-08-12T02:33:23.186Z,18.8
2022-08-12T02:34:23.189Z,18.9
2022-08-12T02:35:23.196Z,18.9
2022-08-12T02:36:23.189Z,18.9
2022-08-12T02:37:23.187Z,18.9
2022-08-12T02:39:24.337Z,18.9
2022-08-12T02:40:23.193Z,18.9
2022-08-12T02:41:23.216Z,18.8
2022-08-12T02:42:23.189Z,18.8
2022-08-12T02:43:23.195Z,18.9
2022-08-12T02:44:23.189Z,19.2
2022-08-12T02:45:23.185Z,19.3
2022-08-12T02:46:23.180Z,19.3
2022-08-12T02:47:59.891Z,19.2
2022-08-12T02:48:23.185Z,19.2
2022-08-12T02:49:23.195Z,19.2
2022-08-12T02:50:23.190Z,19.4
2022-08-12T02:51:23.191Z,19.3
2022-08-12T02:52:23.187Z,19.4
2022-08-12T02:53:23.196Z,19.5
2022-08-12T02:54:23.196Z,19.6
2022-08-12T02:55:34.138Z,19.4
2022-08-12T02:56:23.201Z,19.4
2022-08-12T02:57:23.207Z,19.6
2022-08-12T02:58:32.871Z,19.7
2022-08-12T03:00:23.197Z,19.5
2022-08-12T03:01:23.247Z,19.5
2022-08-12T03:02:23.196Z,19.4
2022-08-12T03:03:23.197Z,19.3
2022-08-12T03:04:23.202Z,19.5
2022-08-12T03:05:23.194Z,19.4
2022-08-12T03:06:23.195Z,19.4
2022-08-12T03:07:23.199Z,19.4
2022-08-12T03:08:32.063Z,19.4
2022-08-12T03:09:23.203Z,19.4
2022-08-12T03:10:36.513Z,19.3
2022-08-12T03:11:23.200Z,19.3
2022-08-12T03:12:23.201Z,19.3
2022-08-12T03:13:23.203Z,19.2
2022-08-12T03:14:23.201Z,19.2
2022-08-12T03:15:23.213Z,19.2
2022-08-12T03:16:23.197Z,19.2
2022-08-12T03:17:23.203Z,19.1
2022-08-12T03:18:26.228Z,18.8
2022-08-12T03:19:23.204Z,18.9
2022-08-12T03:20:28.014Z,19
2022-08-12T03:21:52.781Z,19
2022-08-12T03:22:23.201Z,19.1
2022-08-12T03:23:29.695Z,19
2022-08-12T03:24:23.195Z,18.9
2022-08-12T03:25:23.202Z,18.9
2022-08-12T03:26:23.202Z,19
2022-08-12T03:27:23.233Z,19
2022-08-12T03:28:23.869Z,18.9
2022-08-12T03:29:23.202Z,19
2022-08-12T03:30:23.209Z,18.9
2022-08-12T03:31:23.209Z,19
2022-08-12T03:32:35.033Z,19
2022-08-12T03:33:23.252Z,19
2022-08-12T03:34:23.209Z,19
2022-08-12T03:35:36.890Z,19.1
2022-08-12T03:36:23.199Z,19
2022-08-12T03:37:23.203Z,18.9
2022-08-12T03:38:23.237Z,18.9
2022-08-12T03:39:36.452Z,18.8
2022-08-12T03:40:23.207Z,18.9
2022-08-12T03:41:23.208Z,19
2022-08-12T03:42:23.213Z,18.8
2022-08-12T03:43:23.275Z,18.9
2022-08-12T03:45:23.196Z,19
2022-08-12T03:46:23.212Z,19
2022-08-12T03:47:23.205Z,18.6
2022-08-12T03:48:23.208Z,18.7
2022-08-12T03:49:23.209Z,18.8
2022-08-12T03:50:23.206Z,18.8
2022-08-12T03:51:23.207Z,19.1
2022-08-12T03:52:23.208Z,18.9
2022-08-12T03:53:23.218Z,18.8
2022-08-12T03:54:23.202Z,18.8
2022-08-12T03:55:23.204Z,18.7
2022-08-12T03:56:23.207Z,18.7
2022-08-12T03:57:23.206Z,18.9
2022-08-12T03:58:23.215Z,19
2022-08-12T03:59:23.209Z,19.1
2022-08-12T04:00:24.307Z,18.9
2022-08-12T04:01:23.276Z,19
2022-08-12T04:02:23.215Z,18.7
2022-08-12T04:03:25.155Z,18.7
2022-08-12T04:04:23.209Z,18.9
2022-08-12T04:05:23.219Z,18.8
2022-08-12T04:06:35.067Z,18.9
2022-08-12T04:07:23.216Z,18.8
2022-08-12T04:08:23.210Z,18.4
2022-08-12T04:09:23.218Z,18.4
2022-08-12T04:10:23.223Z,18.4
2022-08-12T04:11:23.216Z,18.2
2022-08-12T04:12:23.224Z,18.3
2022-08-12T04:13:23.218Z,18.2
2022-08-12T04:14:23.213Z,18.2
2022-08-12T04:15:23.221Z,18.3
2022-08-12T04:16:23.222Z,18.3
2022-08-12T04:17:23.230Z,18.5
2022-08-12T04:18:23.221Z,18.5
2022-08-12T04:19:23.222Z,18.6
2022-08-12T04:20:23.215Z,18.7
2022-08-12T04:21:23.220Z,18.7
2022-08-12T04:22:23.225Z,18.8
2022-08-12T04:23:23.219Z,18.6
2022-08-12T04:24:23.219Z,18.4
2022-08-12T04:25:23.226Z,18.3
2022-08-12T04:26:23.220Z,18.3
2022-08-12T04:27:23.227Z,18.1
2022-08-12T04:28:23.233Z,18.2
2022-08-12T04:29:23.219Z,18.3
2022-08-12T04:30:32.608Z,18.3
2022-08-12T04:31:23.219Z,18.3
2022-08-12T04:32:23.217Z,18.4
2022-08-12T04:33:23.224Z,18.3
2022-08-12T04:34:23.226Z,18.6
2022-08-12T04:35:23.258Z,18.8
2022-08-12T04:36:23.227Z,18.8
2022-08-12T04:37:23.267Z,18.6
2022-08-12T04:39:23.267Z,18.5
2022-08-12T04:40:28.535Z,18.3
2022-08-12T04:41:23.224Z,18.5
2022-08-12T04:42:23.224Z,18.7
2022-08-12T04:43:59.692Z,18.8
2022-08-12T04:44:23.228Z,18.8
2022-08-12T04:45:23.286Z,18.4
2022-08-12T04:46:26.424Z,18.2
2022-08-12T04:48:23.227Z,18.3
2022-08-12T04:49:23.232Z,18.4
2022-08-12T04:50:35.203Z,18.4
2022-08-12T04:51:23.230Z,18.6
2022-08-12T04:52:23.229Z,18.7
2022-08-12T04:53:23.238Z,18.5
2022-08-12T04:54:23.346Z,18.7
2022-08-12T04:55:23.297Z,18.5
2022-08-12T04:56:23.229Z,18.4
2022-08-12T04:57:23.221Z,18.2
2022-08-12T04:58:29.366Z,18.4
2022-08-12T04:59:23.235Z,18.7
2022-08-12T05:00:23.230Z,18.7
2022-08-12T05:01:23.235Z,18.9
2022-08-12T05:02:23.303Z,19
2022-08-12T05:03:23.228Z,19
2022-08-12T05:04:23.231Z,19.3
2022-08-12T05:05:24.146Z,19.5
2022-08-12T05:06:26.680Z,19.9
2022-08-12T05:07:23.238Z,20.2
2022-08-12T05:08:23.227Z,20.5
2022-08-12T05:09:23.237Z,21.1
2022-08-12T05:10:33.481Z,21.4
2022-08-12T05:11:23.227Z,21.9
2022-08-12T05:13:23.232Z,21.5
2022-08-12T05:14:23.237Z,21.6
2022-08-12T05:15:29.410Z,21.6
2022-08-12T05:16:25.958Z,20.9
2022-08-12T05:17:23.327Z,21.5
2022-08-12T05:18:23.230Z,21.6
2022-08-12T05:19:23.236Z,21.8
2022-08-12T05:20:23.234Z,21.1
2022-08-12T05:21:23.238Z,20.2
2022-08-12T05:22:23.298Z,21
2022-08-12T05:23:23.237Z,20.6
2022-08-12T05:24:23.234Z,21.2
2022-08-12T05:25:23.235Z,22.3
2022-08-12T05:26:23.237Z,23.1
2022-08-12T05:27:23.365Z,23.6
2022-08-12T05:28:23.231Z,24
2022-08-12T05:30:08.398Z,24.2
2022-08-12T05:30:23.232Z,23.4
2022-08-12T05:31:40.508Z,22.2
2022-08-12T05:32:23.256Z,21.3
2022-08-12T05:34:26.662Z,21.8
2022-08-12T05:35:23.275Z,21.4
2022-08-12T05:36:23.238Z,22.3
2022-08-12T05:37:23.241Z,22.7
2022-08-12T05:38:23.238Z,23.1
2022-08-12T05:39:23.254Z,22.6
2022-08-12T05:40:23.239Z,21.3
2022-08-12T05:41:23.241Z,22.5
2022-08-12T05:42:31.026Z,23.1
2022-08-12T05:43:23.240Z,24.4
2022-08-12T05:44:23.240Z,23.9
2022-08-12T05:45:23.249Z,25
2022-08-12T05:46:23.244Z,25.4
2022-08-12T05:47:23.250Z,26.2
2022-08-12T05:48:23.246Z,26.2
2022-08-12T05:49:23.248Z,26.8
2022-08-12T05:50:23.242Z,27.3
2022-08-12T05:51:23.249Z,25.1
2022-08-12T05:52:23.247Z,23
2022-08-12T05:53:23.244Z,22.1
2022-08-12T05:54:41.147Z,24.1
2022-08-12T05:55:25.813Z,24.5
2022-08-12T05:56:23.634Z,24.2
2022-08-12T05:57:23.244Z,25
2022-08-12T05:58:23.255Z,25.3
2022-08-12T05:59:23.240Z,26.3
2022-08-12T06:00:23.246Z,26.3
2022-08-12T06:02:08.957Z,25.1
2022-08-12T06:02:23.259Z,24.4
2022-08-12T06:03:23.298Z,24.7
2022-08-12T06:04:23.249Z,24.9
2022-08-12T06:06:25.329Z,25
2022-08-12T06:07:58.962Z,25.8
2022-08-12T06:08:23.242Z,26.6
2022-08-12T06:09:23.269Z,26.4
2022-08-12T06:10:32.163Z,27.6
2022-08-12T06:11:23.253Z,28.1
2022-08-12T06:12:23.257Z,28.8
2022-08-12T06:13:28.303Z,29.3
2022-08-12T06:14:23.246Z,29.8
2022-08-12T06:15:23.256Z,28
2022-08-12T06:16:23.249Z,27.8
2022-08-12T06:17:23.253Z,27.6
2022-08-12T06:18:27.760Z,24.8
2022-08-12T06:19:23.250Z,25.6
2022-08-12T06:20:29.103Z,27.6
2022-08-12T06:21:23.250Z,27.3
2022-08-12T06:22:23.246Z,25
2022-08-12T06:24:23.262Z,24.5
2022-08-12T06:25:23.259Z,25.4
2022-08-12T06:26:23.253Z,24.2
2022-08-12T06:27:23.252Z,24.4
2022-08-12T06:28:23.264Z,24.2
2022-08-12T06:30:06.904Z,24.7
2022-08-12T06:30:33.558Z,25
2022-08-12T06:31:26.200Z,24.3
2022-08-12T06:32:27.699Z,25.7
2022-08-12T06:35:25.938Z,26.8
2022-08-12T06:35:48.141Z,29.2
2022-08-12T06:36:23.261Z,29.6
2022-08-12T06:37:23.256Z,28.3
2022-08-12T06:38:23.256Z,26.8
2022-08-12T06:39:23.329Z,26.3
2022-08-12T06:40:23.263Z,24.9
2022-08-12T06:41:23.268Z,26.4
2022-08-12T06:42:31.998Z,28.2
2022-08-12T06:43:23.262Z,29.8
2022-08-12T06:44:23.264Z,31.1
2022-08-12T06:45:23.265Z,30.9
2022-08-12T06:46:23.263Z,31.7
2022-08-12T06:47:23.265Z,31.5
2022-08-12T06:48:23.264Z,32.3
2022-08-12T06:49:23.266Z,32.7
2022-08-12T06:50:23.270Z,31.1
2022-08-12T06:51:23.262Z,30.4
2022-08-12T06:52:23.269Z,30.6
2022-08-12T06:53:23.266Z,30.7
2022-08-12T06:54:30.717Z,31.6
2022-08-12T06:55:23.311Z,29.9
2022-08-12T06:56:34.710Z,28.3
2022-08-12T06:57:57.229Z,30.2
2022-08-12T06:58:23.264Z,31.9
2022-08-12T06:59:23.267Z,31.6
2022-08-12T07:00:28.475Z,32.3
2022-08-12T07:01:23.318Z,33.1
2022-08-12T07:02:23.265Z,32.8
2022-08-12T07:03:23.733Z,33.1
2022-08-12T07:04:36.190Z,32.3
2022-08-12T07:06:23.268Z,30.4
2022-08-12T07:07:23.275Z,31.8
2022-08-12T07:08:23.264Z,31.9
2022-08-12T07:10:04.901Z,31.5
2022-08-12T07:10:23.276Z,32.1
2022-08-12T07:11:23.274Z,30.9
2022-08-12T07:13:23.281Z,30.8
2022-08-12T07:14:23.268Z,31.2
2022-08-12T07:15:23.283Z,31.4
2022-08-12T07:16:23.282Z,31.5
2022-08-12T07:17:23.273Z,32.3
2022-08-12T07:18:23.273Z,32.1
2022-08-12T07:19:23.281Z,31.8
2022-08-12T07:20:50.756Z,31.1
2022-08-12T07:21:23.270Z,29.1
2022-08-12T07:22:23.465Z,27.9
2022-08-12T07:23:23.276Z,27.2
2022-08-12T07:24:23.312Z,29.4
2022-08-12T07:25:23.290Z,30.8
2022-08-12T07:26:23.322Z,32.1
2022-08-12T07:27:23.279Z,31.5
2022-08-12T07:28:23.282Z,31.5
2022-08-12T07:29:23.277Z,31.5
2022-08-12T07:30:23.405Z,32.7
2022-08-12T07:31:23.319Z,33.6
2022-08-12T07:32:23.278Z,34
2022-08-12T07:33:23.289Z,33.6
2022-08-12T07:34:23.288Z,34.3
2022-08-12T07:35:23.308Z,33.4
2022-08-12T07:36:23.304Z,33.8
2022-08-12T07:37:23.284Z,34
2022-08-12T07:38:29.820Z,32.1
2022-08-12T07:39:23.333Z,33
2022-08-12T07:41:23.285Z,33
2022-08-12T07:42:23.290Z,31.8
2022-08-12T07:43:23.283Z,33.7
2022-08-12T07:44:23.285Z,35.7
2022-08-12T07:45:23.294Z,36.4
2022-08-12T07:46:23.298Z,33.2
2022-08-12T07:47:23.309Z,28.9
2022-08-12T07:48:23.287Z,28.7
2022-08-12T07:49:23.292Z,28.1
2022-08-12T07:50:24.054Z,28.1
2022-08-12T07:52:23.287Z,32.1
2022-08-12T07:53:23.299Z,34.4
2022-08-12T07:54:23.292Z,32.6
2022-08-12T07:55:23.298Z,30.9
2022-08-12T07:56:23.294Z,29.9
2022-08-12T07:57:23.300Z,31.2
2022-08-12T07:58:23.291Z,33.9
2022-08-12T07:59:23.303Z,33.2
2022-08-12T08:00:23.291Z,34.5
2022-08-12T08:01:23.340Z,35.8
2022-08-12T08:02:27.053Z,35.8
2022-08-12T08:03:23.287Z,36.2
2022-08-12T08:04:24.444Z,32.4
2022-08-12T08:05:23.293Z,34.5
2022-08-12T08:06:23.291Z,32.7
2022-08-12T08:07:23.290Z,33.7
2022-08-12T08:08:23.294Z,31.6
2022-08-12T08:09:23.305Z,32.3
2022-08-12T08:10:23.291Z,34.7
2022-08-12T08:11:23.304Z,36.3
2022-08-12T08:12:23.297Z,33.6
2022-08-12T08:13:23.311Z,32.4
2022-08-12T08:14:23.293Z,31.7
2022-08-12T08:16:23.295Z,35.1
2022-08-12T08:17:23.294Z,32.8
2022-08-12T08:18:26.776Z,34.4
2022-08-12T08:19:23.297Z,35.1
2022-08-12T08:20:23.318Z,33.3
2022-08-12T08:21:23.297Z,33.1
2022-08-12T08:22:40.445Z,31.4
2022-08-12T08:23:29.350Z,33.8
2022-08-12T08:24:23.308Z,34.8
2022-08-12T08:25:36.418Z,34.5
2022-08-12T08:27:23.355Z,33.3
2022-08-12T08:28:23.307Z,31.6
2022-08-12T08:29:23.304Z,34
2022-08-12T08:31:23.310Z,34.8
2022-08-12T08:32:23.309Z,36.1
2022-08-12T08:34:04.196Z,36.4
2022-08-12T08:35:23.314Z,36.5
2022-08-12T08:36:23.582Z,36.3
2022-08-12T08:37:23.314Z,36.3
2022-08-12T08:38:32.467Z,33.6
2022-08-12T08:39:23.341Z,36
2022-08-12T08:40:23.317Z,37.4
2022-08-12T08:42:16.294Z,37.2
2022-08-12T08:42:23.313Z,33.3
2022-08-12T08:43:23.338Z,32.1
2022-08-12T08:44:23.313Z,33.8
2022-08-12T08:45:23.309Z,34.8
2022-08-12T08:46:23.338Z,33.3
2022-08-12T08:47:23.314Z,32
2022-08-12T08:48:23.314Z,33.7
2022-08-12T08:49:23.311Z,33.9
2022-08-12T08:50:23.310Z,33.7
2022-08-12T08:51:23.314Z,32.8
2022-08-12T08:52:40.276Z,30.1
2022-08-12T08:53:23.318Z,32.4
2022-08-12T08:54:23.314Z,34.8
2022-08-12T08:55:29.982Z,35.1
2022-08-12T08:56:23.316Z,30.2
2022-08-12T08:57:23.330Z,31.3
2022-08-12T08:58:23.703Z,33.3
2022-08-12T08:59:23.319Z,35.2
2022-08-12T09:00:23.319Z,35.9
2022-08-12T09:01:23.361Z,33.9
2022-08-12T09:02:23.383Z,34.1
2022-08-12T09:05:08.476Z,35.7
2022-08-12T09:05:25.808Z,34.5
2022-08-12T09:06:37.426Z,36.1
2022-08-12T09:07:51.945Z,35.7
2022-08-12T09:09:23.326Z,35
2022-08-12T09:12:07.198Z,32.7
2022-08-12T09:12:27.441Z,31.5
2022-08-12T09:13:29.149Z,33.5
2022-08-12T09:14:29.454Z,33.7
2022-08-12T09:15:23.329Z,34.8
2022-08-12T09:17:23.319Z,37.4
2022-08-12T09:18:33.696Z,37.9
2022-08-12T09:19:27.315Z,35
2022-08-12T09:20:29.293Z,35.1
2022-08-12T09:21:23.431Z,34
2022-08-12T09:22:23.333Z,33.5
2022-08-12T09:23:59.535Z,35.8
2022-08-12T09:24:23.331Z,36.7
2022-08-12T09:25:25.686Z,34.9
2022-08-12T09:26:28.425Z,32.3
2022-08-12T09:27:28.766Z,32.1
2022-08-12T09:28:23.326Z,33.9
2022-08-12T09:30:09.670Z,33
2022-08-12T09:30:41.026Z,34
2022-08-12T09:32:03.760Z,35
2022-08-12T09:32:56.579Z,35.3
2022-08-12T09:34:25.313Z,36
2022-08-12T09:34:27.494Z,35.9
2022-08-12T09:35:28.192Z,35.1
2022-08-12T09:36:31.046Z,34.8
2022-08-12T09:37:23.332Z,35.3
2022-08-12T09:38:28.123Z,31.8
2022-08-12T09:40:02.587Z,31.3
2022-08-12T09:40:57.090Z,32.2
2022-08-12T09:42:34.537Z,33.5
2022-08-12T09:42:38.803Z,34.2
2022-08-12T09:44:39.522Z,33.7
2022-08-12T09:46:07.104Z,33.9
2022-08-12T09:46:25.491Z,34
2022-08-12T09:47:29.379Z,32.8
2022-08-12T09:48:23.339Z,33.2
2022-08-12T09:49:24.049Z,31.2
2022-08-12T09:50:23.476Z,33.1
2022-08-12T09:51:23.339Z,33.7
2022-08-12T09:52:23.333Z,36.1
2022-08-12T09:53:29.377Z,37
2022-08-12T09:54:31.418Z,34.3
2022-08-12T09:56:06.655Z,35.6
2022-08-12T09:57:01.095Z,37
2022-08-12T09:58:45.163Z,36.9
2022-08-12T10:00:13.206Z,32.5
2022-08-12T10:00:28.951Z,33.4
2022-08-12T10:01:23.979Z,34.9
2022-08-12T10:02:52.772Z,33.6
2022-08-12T10:03:31.846Z,31.3
2022-08-12T10:06:27.094Z,32.3
2022-08-12T10:06:31.490Z,33.3
2022-08-12T10:07:25.262Z,35.6
2022-08-12T10:08:23.355Z,35.9
2022-08-12T10:09:28.876Z,36.7
2022-08-12T10:10:25.126Z,37.5
2022-08-12T10:11:23.346Z,37.8
2022-08-12T10:12:31.334Z,38.1
2022-08-12T10:13:38.380Z,38
2022-08-12T10:14:34.901Z,36.1
2022-08-12T10:16:00.858Z,36.7
2022-08-12T10:16:23.347Z,36.5
2022-08-12T10:17:23.347Z,34.9
2022-08-12T10:18:23.348Z,34.9
2022-08-12T10:19:23.361Z,36.3
2022-08-12T10:20:23.502Z,34.2
2022-08-12T10:21:23.693Z,33.7
2022-08-12T10:22:37.071Z,33.5
2022-08-12T10:23:38.424Z,35.9
2022-08-12T10:24:23.368Z,35.6
2022-08-12T10:26:38.488Z,37.5
2022-08-12T10:27:23.362Z,34.9
2022-08-12T10:28:25.327Z,33.6
2022-08-12T10:30:38.974Z,32.3
2022-08-12T10:30:41.907Z,33.7
2022-08-12T10:31:23.374Z,33.6
2022-08-12T10:33:23.367Z,35
2022-08-12T10:34:26.549Z,33.5
2022-08-12T10:35:23.359Z,32.7
2022-08-12T10:36:40.127Z,32.9
2022-08-12T10:38:34.154Z,32.6
2022-08-12T10:40:01.090Z,34.9
2022-08-12T10:40:28.700Z,35.9
2022-08-12T10:41:23.405Z,34.7
2022-08-12T10:42:28.944Z,31.8
2022-08-12T10:43:23.362Z,32.3
2022-08-12T10:44:23.602Z,33.5
2022-08-12T10:45:23.961Z,35
2022-08-12T10:46:23.367Z,35.3
2022-08-12T10:47:26.310Z,35.9
2022-08-12T10:48:33.421Z,35.8
2022-08-12T10:50:03.315Z,33.9
2022-08-12T10:50:35.434Z,31.2
2022-08-12T10:52:03.495Z,30.6
2022-08-12T10:52:33.882Z,31.9
2022-08-12T10:53:23.870Z,32.9
2022-08-12T10:54:27.049Z,32.9
2022-08-12T10:55:23.431Z,32.7
2022-08-12T10:56:23.366Z,34.1
2022-08-12T10:58:27.397Z,34.7
2022-08-12T10:58:28.096Z,34.2
2022-08-12T10:59:39.132Z,33.8
2022-08-12T11:00:35.911Z,34.3
2022-08-12T11:01:49.636Z,33.9
2022-08-12T11:04:24.856Z,33.9
2022-08-12T11:04:28.132Z,32.7
2022-08-12T11:04:41.282Z,33
2022-08-12T11:07:05.357Z,33.6
2022-08-12T11:07:06.572Z,34.4
2022-08-12T11:08:33.972Z,34.4
2022-08-12T11:08:36.997Z,33.2
2022-08-12T11:09:41.932Z,32.9
2022-08-12T11:10:26.424Z,33.2
2022-08-12T11:12:08.260Z,34.9
2022-08-12T11:12:54.890Z,35.8
2022-08-12T11:13:45.745Z,36.6
2022-08-12T11:14:48.372Z,36.6
2022-08-12T11:17:43.623Z,37
2022-08-12T11:18:23.376Z,37.5
2022-08-12T11:19:23.381Z,36.1
2022-08-12T11:20:24.473Z,33.8
2022-08-12T11:21:51.244Z,34.5
2022-08-12T11:22:24.176Z,35.5
2022-08-12T11:23:25.827Z,35.6
2022-08-12T11:24:31.993Z,36.3
2022-08-12T11:25:23.384Z,35.1
2022-08-12T11:26:23.382Z,32.9
2022-08-12T11:27:23.387Z,33.6
2022-08-12T11:29:23.385Z,34.6
2022-08-12T11:30:31.426Z,35.3
2022-08-12T11:31:23.379Z,35
2022-08-12T11:32:23.387Z,35.2
2022-08-12T11:33:24.420Z,34.5
2022-08-12T11:34:52.477Z,35.1
2022-08-12T11:35:23.390Z,35.7
2022-08-12T11:36:23.359Z,35.4
2022-08-12T11:37:26.476Z,35.6
2022-08-12T11:38:23.358Z,34.4
2022-08-12T11:39:23.680Z,32.1
2022-08-12T11:40:23.356Z,31.8
2022-08-12T11:41:31.544Z,33.1
2022-08-12T11:42:25.868Z,34.2
2022-08-12T11:43:23.365Z,34.4
2022-08-12T11:44:36.065Z,33.3
2022-08-12T11:45:23.359Z,32.5
2022-08-12T11:46:23.355Z,31.6
2022-08-12T11:47:23.360Z,33.1
2022-08-12T11:48:26.755Z,34
2022-08-12T11:49:32.261Z,34.9
2022-08-12T11:50:25.731Z,35.5
2022-08-12T11:51:23.383Z,34.5
2022-08-12T11:52:36.697Z,33
2022-08-12T11:53:59.643Z,34.5
2022-08-12T11:54:23.974Z,34.4
2022-08-12T11:56:23.371Z,34.6
2022-08-12T11:58:40.497Z,33.3
2022-08-12T11:59:59.653Z,34.2
2022-08-12T12:02:01.175Z,33.3
2022-08-12T12:02:01.350Z,31.4
2022-08-12T12:02:23.419Z,33
2022-08-12T12:03:23.376Z,33.4
2022-08-12T12:04:29.340Z,33.9
2022-08-12T12:05:39.347Z,35.1
2022-08-12T12:06:23.374Z,34.6
2022-08-12T12:08:35.917Z,35
2022-08-12T12:08:38.613Z,34.4
2022-08-12T12:09:23.381Z,35.3
2022-08-12T12:10:23.394Z,35.1
2022-08-12T12:11:23.382Z,34.5
2022-08-12T12:12:23.486Z,33.7
2022-08-12T12:14:07.272Z,33.6
2022-08-12T12:14:38.021Z,35.3
2022-08-12T12:15:25.259Z,35.5
2022-08-12T12:16:23.386Z,35.6
2022-08-12T12:17:23.399Z,35.4
2022-08-12T12:18:30.999Z,35.9
2022-08-12T12:19:23.399Z,35.7
2022-08-12T12:20:26.073Z,35.3
2022-08-12T12:21:47.626Z,34.6
2022-08-12T12:22:31.037Z,33.8
2022-08-12T12:23:29.039Z,34.6
2022-08-12T12:24:23.396Z,33.1
2022-08-12T12:26:35.334Z,32.3
2022-08-12T12:27:37.350Z,33
2022-08-12T12:28:38.361Z,33.8
2022-08-12T12:30:19.199Z,35
2022-08-12T12:30:30.024Z,34.5
2022-08-12T12:32:06.956Z,34.6
2022-08-12T12:32:29.493Z,35.3
2022-08-12T12:33:23.416Z,35.5
2022-08-12T12:34:30.242Z,35.6
2022-08-12T12:36:29.667Z,35.4
2022-08-12T12:38:25.199Z,34.6
2022-08-12T12:39:23.437Z,33
2022-08-12T12:40:29.991Z,31.8
2022-08-12T12:41:37.107Z,32.6
2022-08-12T12:42:42.611Z,33.2
2022-08-12T12:43:28.672Z,33.6
2022-08-12T12:44:30.121Z,34.4
2022-08-12T12:45:26.088Z,35.2
2022-08-12T12:46:23.416Z,35.5
2022-08-12T12:47:28.838Z,35.4
2022-08-12T12:49:26.243Z,34.6
2022-08-12T12:50:34.846Z,32.6
2022-08-12T12:51:55.166Z,33.8
2022-08-12T12:52:26.806Z,34.2
2022-08-12T12:54:06.949Z,33.7
2022-08-12T12:54:29.026Z,34.5
2022-08-12T12:55:23.421Z,32.5
2022-08-12T12:56:33.983Z,33.2
2022-08-12T12:57:59.312Z,34.3
2022-08-12T12:58:23.424Z,34.7
2022-08-12T12:59:55.127Z,35.5
2022-08-12T13:00:23.423Z,34.9
2022-08-12T13:01:26.591Z,35.4
2022-08-12T13:02:31.429Z,35.5
2022-08-12T13:03:23.427Z,35.8
2022-08-12T13:04:23.426Z,35.8
2022-08-12T13:06:23.426Z,35.8
2022-08-12T13:07:23.427Z,34.4
2022-08-12T13:08:28.602Z,32.9
2022-08-12T13:09:23.427Z,33
2022-08-12T13:10:24.024Z,34.5
2022-08-12T13:11:23.432Z,35.2
2022-08-12T13:12:23.436Z,35.3
2022-08-12T13:14:10.354Z,35.8
2022-08-12T13:14:30.706Z,36.1
2022-08-12T13:15:45.328Z,36.3
2022-08-12T13:17:23.473Z,36.2
2022-08-12T13:18:28.707Z,32.9
2022-08-12T13:19:36.636Z,33.5
2022-08-12T13:20:38.137Z,33.1
2022-08-12T13:21:33.360Z,33.9
2022-08-12T13:22:23.952Z,32.9
2022-08-12T13:23:37.016Z,32.9
2022-08-12T13:24:23.437Z,32.2
2022-08-12T13:25:23.436Z,32.4
2022-08-12T13:26:23.453Z,33.4
2022-08-12T13:27:28.354Z,34.2
2022-08-12T13:28:23.443Z,34.7
2022-08-12T13:29:23.448Z,33.3
2022-08-12T13:30:24.818Z,34.3
2022-08-12T13:31:24.976Z,33
2022-08-12T13:32:30.710Z,32.5
2022-08-12T13:33:23.437Z,31.3
2022-08-12T13:34:34.537Z,32.3
2022-08-12T13:36:23.437Z,33.4
2022-08-12T13:37:23.440Z,34.3
2022-08-12T13:38:34.994Z,34.5
2022-08-12T13:39:23.504Z,35.1
2022-08-12T13:41:23.449Z,34.5
2022-08-12T13:42:23.485Z,34.6
2022-08-12T13:43:41.419Z,34.8
2022-08-12T13:44:23.442Z,34.9
2022-08-12T13:45:23.450Z,33.2
2022-08-12T13:46:23.449Z,33.9
2022-08-12T13:47:23.500Z,34.3
2022-08-12T13:48:23.449Z,34.9
2022-08-12T13:49:53.943Z,35.2
2022-08-12T13:50:26.729Z,34
2022-08-12T13:51:24.322Z,34.7
2022-08-12T13:52:23.465Z,34.5
2022-08-12T13:53:29.530Z,32.6
2022-08-12T13:54:23.454Z,32.5
2022-08-12T13:55:23.456Z,33.8
2022-08-12T13:57:23.489Z,35.2
2022-08-12T13:59:24.844Z,35.3
2022-08-12T14:00:38.456Z,35
2022-08-12T14:01:23.465Z,33.9
2022-08-12T14:02:23.460Z,34.4
2022-08-12T14:03:28.138Z,34.7
2022-08-12T14:04:23.463Z,34.5
2022-08-12T14:05:38.328Z,34.5
2022-08-12T14:06:26.040Z,34.9
2022-08-12T14:07:23.473Z,35.2
2022-08-12T14:08:23.460Z,35.2
2022-08-12T14:09:23.455Z,35.4
2022-08-12T14:10:23.452Z,35.7
2022-08-12T14:11:25.276Z,35.6
2022-08-12T14:12:24.227Z,35.8
2022-08-12T14:14:03.660Z,35.9
2022-08-12T14:15:36.446Z,35.7
2022-08-12T14:16:37.867Z,35.6
2022-08-12T14:17:23.470Z,35.7
2022-08-12T14:18:23.462Z,35.2